sensor_id;sensor_type;location;lat;lon;timestamp;pressure;altitude;pressure_sealevel;temperature;humidity
4598;BME280;62772;48.646;8.906;2023-02-26T00:01:56;95691.22;;;-1.87;100.00
4598;BME280;62772;48.646;8.906;2023-02-26T00:07:00;95690.13;;;-1.91;100.00
4598;BME280;62772;48.646;8.906;2023-02-26T00:12:01;95696.38;;;-1.92;100.00
4598;BME280;62772;48.646;8.906;2023-02-26T00:22:33;95698.03;;;-2.30;100.00
4598;BME280;62772;48.646;8.906;2023-02-26T00:27:34;95704.28;;;-2.31;100.00
4598;BME280;62772;48.646;8.906;2023-02-26T00:32:35;95702.75;;;-2.10;100.00
4598;BME280;62772;48.646;8.906;2023-02-26T00:37:48;95713.44;;;-2.33;100.00
4598;BME280;62772;48.646;8.906;2023-02-26T00:42:52;95702.00;;;-2.27;100.00
4598;BME280;62772;48.646;8.906;2023-02-26T00:48:37;95707.41;;;-2.34;100.00
4598;BME280;62772;48.646;8.906;2023-02-26T00:53:48;95694.56;;;-2.35;100.00
4598;BME280;62772;48.646;8.906;2023-02-26T00:58:50;95690.72;;;-2.50;100.00
4598;BME280;62772;48.646;8.906;2023-02-26T01:03:51;95699.03;;;-2.53;100.00
4598;BME280;62772;48.646;8.906;2023-02-26T01:14:25;95693.63;;;-2.68;100.00
4598;BME280;62772;48.646;8.906;2023-02-26T01:19:34;95701.72;;;-2.87;100.00
4598;BME280;62772;48.646;8.906;2023-02-26T01:24:39;95696.97;;;-2.73;100.00
4598;BME280;62772;48.646;8.906;2023-02-26T01:29:40;95693.56;;;-2.74;100.00
4598;BME280;62772;48.646;8.906;2023-02-26T01:45:34;95696.31;;;-2.63;100.00
4598;BME280;62772;48.646;8.906;2023-02-26T01:50:37;95703.09;;;-2.84;100.00
4598;BME280;62772;48.646;8.906;2023-02-26T01:55:42;95706.09;;;-2.93;100.00
4598;BME280;62772;48.646;8.906;2023-02-26T02:00:44;95705.69;;;-3.01;100.00
4598;BME280;62772;48.646;8.906;2023-02-26T02:06:38;95704.28;;;-2.92;100.00
4598;BME280;62772;48.646;8.906;2023-02-26T02:11:31;95707.59;;;-2.97;100.00
4598;BME280;62772;48.646;8.906;2023-02-26T02:27:02;95708.88;;;-3.16;100.00
4598;BME280;62772;48.646;8.906;2023-02-26T02:32:09;95723.69;;;-3.05;100.00
4598;BME280;62772;48.646;8.906;2023-02-26T02:37:26;95728.91;;;-3.05;100.00
4598;BME280;62772;48.646;8.906;2023-02-26T02:42:40;95726.84;;;-3.03;100.00
4598;BME280;62772;48.646;8.906;2023-02-26T02:47:47;95730.16;;;-3.07;100.00
4598;BME280;62772;48.646;8.906;2023-02-26T02:52:53;95732.63;;;-3.18;100.00
4598;BME280;62772;48.646;8.906;2023-02-26T02:58:03;95734.03;;;-3.27;100.00
4598;BME280;62772;48.646;8.906;2023-02-26T03:03:13;95735.75;;;-3.33;100.00
4598;BME280;62772;48.646;8.906;2023-02-26T03:08:23;95737.88;;;-3.30;100.00
4598;BME280;62772;48.646;8.906;2023-02-26T03:13:25;95741.59;;;-3.42;100.00
4598;BME280;62772;48.646;8.906;2023-02-26T03:18:47;95748.31;;;-3.47;100.00
4598;BME280;62772;48.646;8.906;2023-02-26T03:24:03;95753.09;;;-3.43;100.00
4598;BME280;62772;48.646;8.906;2023-02-26T03:29:14;95754.75;;;-3.66;100.00
4598;BME280;62772;48.646;8.906;2023-02-26T03:34:45;95752.13;;;-3.66;100.00
4598;BME280;62772;48.646;8.906;2023-02-26T03:39:51;95764.72;;;-3.63;100.00
4598;BME280;62772;48.646;8.906;2023-02-26T03:45:00;95768.22;;;-3.57;100.00
4598;BME280;62772;48.646;8.906;2023-02-26T03:50:13;95772.31;;;-3.61;100.00
4598;BME280;62772;48.646;8.906;2023-02-26T03:55:58;95757.47;;;-3.61;100.00
4598;BME280;62772;48.646;8.906;2023-02-26T04:01:25;95769.06;;;-3.69;100.00
4598;BME280;62772;48.646;8.906;2023-02-26T04:06:28;95763.38;;;-3.66;100.00
4598;BME280;62772;48.646;8.906;2023-02-26T04:11:30;95767.78;;;-3.66;100.00
4598;BME280;62772;48.646;8.906;2023-02-26T04:16:31;95770.31;;;-3.71;100.00
4598;BME280;62772;48.646;8.906;2023-02-26T04:21:32;95773.16;;;-4.13;100.00
4598;BME280;62772;48.646;8.906;2023-02-26T04:26:32;95779.97;;;-4.24;100.00
4598;BME280;62772;48.646;8.906;2023-02-26T04:31:33;95781.06;;;-4.08;100.00
4598;BME280;62772;48.646;8.906;2023-02-26T04:36:33;95781.88;;;-4.31;100.00
4598;BME280;62772;48.646;8.906;2023-02-26T04:41:34;95788.91;;;-4.08;100.00
4598;BME280;62772;48.646;8.906;2023-02-26T04:46:36;95796.88;;;-4.39;100.00
4598;BME280;62772;48.646;8.906;2023-02-26T04:51:36;95797.53;;;-4.20;100.00
4598;BME280;62772;48.646;8.906;2023-02-26T04:56:37;95789.28;;;-4.40;100.00
4598;BME280;62772;48.646;8.906;2023-02-26T05:01:38;95797.31;;;-4.18;100.00
4598;BME280;62772;48.646;8.906;2023-02-26T05:06:41;95793.44;;;-4.15;100.00
4598;BME280;62772;48.646;8.906;2023-02-26T05:11:42;95800.81;;;-4.24;100.00
4598;BME280;62772;48.646;8.906;2023-02-26T05:16:42;95815.25;;;-4.45;100.00
4598;BME280;62772;48.646;8.906;2023-02-26T05:21:43;95824.28;;;-4.48;100.00
4598;BME280;62772;48.646;8.906;2023-02-26T05:26:44;95818.19;;;-4.42;100.00
4598;BME280;62772;48.646;8.906;2023-02-26T05:31:44;95825.09;;;-4.35;100.00
4598;BME280;62772;48.646;8.906;2023-02-26T05:36:45;95820.28;;;-4.74;100.00
4598;BME280;62772;48.646;8.906;2023-02-26T05:41:45;95825.06;;;-4.71;100.00
4598;BME280;62772;48.646;8.906;2023-02-26T05:46:46;95834.03;;;-4.43;100.00
4598;BME280;62772;48.646;8.906;2023-02-26T05:51:46;95836.66;;;-4.43;100.00
4598;BME280;62772;48.646;8.906;2023-02-26T05:56:47;95835.28;;;-4.34;100.00
4598;BME280;62772;48.646;8.906;2023-02-26T06:01:47;95855.34;;;-4.34;100.00
4598;BME280;62772;48.646;8.906;2023-02-26T06:06:48;95865.22;;;-4.48;100.00
4598;BME280;62772;48.646;8.906;2023-02-26T06:11:48;95871.78;;;-4.46;100.00
4598;BME280;62772;48.646;8.906;2023-02-26T06:16:49;95887.06;;;-4.38;100.00
4598;BME280;62772;48.646;8.906;2023-02-26T06:21:50;95889.19;;;-4.58;100.00
4598;BME280;62772;48.646;8.906;2023-02-26T06:26:50;95902.22;;;-4.58;100.00
4598;BME280;62772;48.646;8.906;2023-02-26T06:31:51;95902.81;;;-4.56;100.00
4598;BME280;62772;48.646;8.906;2023-02-26T06:36:51;95908.91;;;-4.62;100.00
4598;BME280;62772;48.646;8.906;2023-02-26T06:41:52;95913.63;;;-4.71;100.00
4598;BME280;62772;48.646;8.906;2023-02-26T06:46:52;95919.91;;;-4.60;100.00
4598;BME280;62772;48.646;8.906;2023-02-26T06:51:53;95925.53;;;-4.75;100.00
4598;BME280;62772;48.646;8.906;2023-02-26T06:56:53;95934.94;;;-4.74;100.00
4598;BME280;62772;48.646;8.906;2023-02-26T07:01:56;95949.19;;;-4.46;100.00
4598;BME280;62772;48.646;8.906;2023-02-26T07:06:57;95945.66;;;-4.52;100.00
4598;BME280;62772;48.646;8.906;2023-02-26T07:11:57;95958.66;;;-4.52;100.00
4598;BME280;62772;48.646;8.906;2023-02-26T07:16:58;95967.78;;;-4.43;100.00
4598;BME280;62772;48.646;8.906;2023-02-26T07:21:59;95966.06;;;-4.49;100.00
4598;BME280;62772;48.646;8.906;2023-02-26T07:27:00;95969.97;;;-4.28;100.00
4598;BME280;62772;48.646;8.906;2023-02-26T07:32:00;95979.75;;;-4.11;100.00
4598;BME280;62772;48.646;8.906;2023-02-26T07:37:01;95980.75;;;-4.12;100.00
4598;BME280;62772;48.646;8.906;2023-02-26T07:42:02;95983.13;;;-4.11;100.00
4598;BME280;62772;48.646;8.906;2023-02-26T07:47:03;95981.22;;;-4.04;100.00
4598;BME280;62772;48.646;8.906;2023-02-26T07:52:04;95979.66;;;-3.93;100.00
4598;BME280;62772;48.646;8.906;2023-02-26T07:57:06;95983.97;;;-3.98;100.00
4598;BME280;62772;48.646;8.906;2023-02-26T08:02:07;95977.63;;;-3.91;100.00
4598;BME280;62772;48.646;8.906;2023-02-26T08:07:07;95982.28;;;-3.81;100.00
4598;BME280;62772;48.646;8.906;2023-02-26T08:12:08;95996.34;;;-3.70;100.00
4598;BME280;62772;48.646;8.906;2023-02-26T08:17:09;95988.41;;;-3.75;100.00
4598;BME280;62772;48.646;8.906;2023-02-26T08:22:10;96007.47;;;-3.75;100.00
4598;BME280;62772;48.646;8.906;2023-02-26T08:27:11;95993.28;;;-3.67;100.00
4598;BME280;62772;48.646;8.906;2023-02-26T08:32:12;96002.81;;;-3.73;100.00
4598;BME280;62772;48.646;8.906;2023-02-26T08:37:13;96010.19;;;-3.70;100.00
4598;BME280;62772;48.646;8.906;2023-02-26T08:42:13;96003.94;;;-3.80;100.00
4598;BME280;62772;48.646;8.906;2023-02-26T08:47:15;96019.81;;;-3.82;100.00
4598;BME280;62772;48.646;8.906;2023-02-26T08:52:16;96009.19;;;-3.69;100.00
4598;BME280;62772;48.646;8.906;2023-02-26T08:57:16;96019.38;;;-3.67;100.00
4598;BME280;62772;48.646;8.906;2023-02-26T09:02:17;96014.72;;;-3.65;100.00
4598;BME280;62772;48.646;8.906;2023-02-26T09:07:18;96014.38;;;-3.57;100.00
4598;BME280;62772;48.646;8.906;2023-02-26T09:12:18;96021.75;;;-3.54;100.00
4598;BME280;62772;48.646;8.906;2023-02-26T09:17:18;96038.22;;;-3.65;100.00
4598;BME280;62772;48.646;8.906;2023-02-26T09:22:19;96045.03;;;-3.64;100.00
4598;BME280;62772;48.646;8.906;2023-02-26T09:27:19;96038.91;;;-3.58;100.00
4598;BME280;62772;48.646;8.906;2023-02-26T09:32:20;96050.28;;;-3.40;100.00
4598;BME280;62772;48.646;8.906;2023-02-26T09:37:20;96056.50;;;-3.53;100.00
4598;BME280;62772;48.646;8.906;2023-02-26T09:47:46;96063.66;;;-3.37;100.00
4598;BME280;62772;48.646;8.906;2023-02-26T09:53:06;96072.84;;;-3.34;100.00
4598;BME280;62772;48.646;8.906;2023-02-26T10:03:27;96077.16;;;-3.28;100.00
4598;BME280;62772;48.646;8.906;2023-02-26T10:08:38;96067.53;;;-3.28;100.00
4598;BME280;62772;48.646;8.906;2023-02-26T10:13:47;96076.59;;;-3.18;100.00
4598;BME280;62772;48.646;8.906;2023-02-26T10:18:58;96089.22;;;-3.27;100.00
4598;BME280;62772;48.646;8.906;2023-02-26T10:24:28;96093.06;;;-3.30;100.00
4598;BME280;62772;48.646;8.906;2023-02-26T10:29:27;96102.25;;;-3.27;100.00
4598;BME280;62772;48.646;8.906;2023-02-26T10:34:39;96101.56;;;-3.34;100.00
4598;BME280;62772;48.646;8.906;2023-02-26T10:39:49;96104.78;;;-3.32;100.00
4598;BME280;62772;48.646;8.906;2023-02-26T10:45:23;96105.44;;;-3.25;100.00
4598;BME280;62772;48.646;8.906;2023-02-26T10:50:26;96105.88;;;-3.28;100.00
4598;BME280;62772;48.646;8.906;2023-02-26T10:55:32;96105.91;;;-3.16;100.00
4598;BME280;62772;48.646;8.906;2023-02-26T11:00:33;96104.75;;;-3.20;100.00
4598;BME280;62772;48.646;8.906;2023-02-26T11:05:38;96101.13;;;-2.96;100.00
4598;BME280;62772;48.646;8.906;2023-02-26T11:10:51;96100.31;;;-2.96;100.00
4598;BME280;62772;48.646;8.906;2023-02-26T11:15:56;96103.63;;;-2.89;100.00
4598;BME280;62772;48.646;8.906;2023-02-26T11:20:58;96101.13;;;-2.96;100.00
4598;BME280;62772;48.646;8.906;2023-02-26T11:26:05;96099.72;;;-2.86;100.00
4598;BME280;62772;48.646;8.906;2023-02-26T11:31:09;96097.69;;;-2.72;100.00
4598;BME280;62772;48.646;8.906;2023-02-26T11:36:17;96112.78;;;-2.63;100.00
4598;BME280;62772;48.646;8.906;2023-02-26T11:41:18;96114.38;;;-2.62;100.00
4598;BME280;62772;48.646;8.906;2023-02-26T11:46:23;96113.44;;;-2.56;100.00
4598;BME280;62772;48.646;8.906;2023-02-26T11:51:26;96111.03;;;-2.45;100.00
4598;BME280;62772;48.646;8.906;2023-02-26T12:01:28;96114.53;;;-2.40;100.00
4598;BME280;62772;48.646;8.906;2023-02-26T12:06:29;96119.91;;;-2.46;100.00
4598;BME280;62772;48.646;8.906;2023-02-26T12:27:56;96123.09;;;-2.15;100.00
4598;BME280;62772;48.646;8.906;2023-02-26T12:33:52;96107.31;;;-2.21;100.00
4598;BME280;62772;48.646;8.906;2023-02-26T12:39:04;96120.53;;;-2.27;100.00
4598;BME280;62772;48.646;8.906;2023-02-26T12:44:42;96123.94;;;-2.27;100.00
4598;BME280;62772;48.646;8.906;2023-02-26T13:00:37;96132.31;;;-2.13;100.00
4598;BME280;62772;48.646;8.906;2023-02-26T13:06:13;96132.56;;;-2.14;100.00
4598;BME280;62772;48.646;8.906;2023-02-26T13:17:26;96124.09;;;-2.05;100.00
4598;BME280;62772;48.646;8.906;2023-02-26T13:22:36;96126.34;;;-1.96;100.00
4598;BME280;62772;48.646;8.906;2023-02-26T13:27:39;96139.97;;;-1.94;100.00
4598;BME280;62772;48.646;8.906;2023-02-26T13:32:43;96128.03;;;-1.90;100.00
4598;BME280;62772;48.646;8.906;2023-02-26T13:37:52;96137.25;;;-1.88;100.00
4598;BME280;62772;48.646;8.906;2023-02-26T13:48:42;96143.56;;;-1.84;100.00
4598;BME280;62772;48.646;8.906;2023-02-26T13:53:51;96158.72;;;-1.86;100.00
4598;BME280;62772;48.646;8.906;2023-02-26T13:59:01;96147.09;;;-1.78;100.00
4598;BME280;62772;48.646;8.906;2023-02-26T14:04:22;96143.78;;;-1.73;100.00
4598;BME280;62772;48.646;8.906;2023-02-26T14:15:27;96138.53;;;-1.56;100.00
4598;BME280;62772;48.646;8.906;2023-02-26T14:25:29;96147.06;;;-1.49;100.00
4598;BME280;62772;48.646;8.906;2023-02-26T14:30:34;96152.59;;;-1.46;100.00
4598;BME280;62772;48.646;8.906;2023-02-26T14:35:47;96157.88;;;-1.29;100.00
4598;BME280;62772;48.646;8.906;2023-02-26T14:40:55;96161.81;;;-1.26;100.00
4598;BME280;62772;48.646;8.906;2023-02-26T14:45:57;96174.53;;;-1.35;100.00
4598;BME280;62772;48.646;8.906;2023-02-26T15:18:30;96171.03;;;-1.23;97.78
4598;BME280;62772;48.646;8.906;2023-02-26T15:28:45;96178.97;;;-1.18;91.26
4598;BME280;62772;48.646;8.906;2023-02-26T15:33:48;96182.16;;;-1.16;92.84
4598;BME280;62772;48.646;8.906;2023-02-26T15:38:53;96182.16;;;-1.16;92.89
4598;BME280;62772;48.646;8.906;2023-02-26T15:43:57;96205.19;;;-1.18;91.41
4598;BME280;62772;48.646;8.906;2023-02-26T15:49:06;96196.47;;;-1.24;91.07
4598;BME280;62772;48.646;8.906;2023-02-26T15:54:14;96200.34;;;-1.26;90.96
4598;BME280;62772;48.646;8.906;2023-02-26T15:59:18;96215.28;;;-1.27;93.05
4598;BME280;62772;48.646;8.906;2023-02-26T16:04:22;96212.22;;;-1.36;94.43
4598;BME280;62772;48.646;8.906;2023-02-26T16:09:34;96227.78;;;-1.46;96.93
4598;BME280;62772;48.646;8.906;2023-02-26T16:14:37;96236.56;;;-1.52;96.91
4598;BME280;62772;48.646;8.906;2023-02-26T16:19:41;96240.22;;;-1.53;95.48
4598;BME280;62772;48.646;8.906;2023-02-26T16:24:51;96247.38;;;-1.49;97.34
4598;BME280;62772;48.646;8.906;2023-02-26T16:29:54;96252.69;;;-1.43;96.60
4598;BME280;62772;48.646;8.906;2023-02-26T16:34:59;96263.84;;;-1.36;97.54
4598;BME280;62772;48.646;8.906;2023-02-26T16:50:27;96291.59;;;-1.52;88.58
4598;BME280;62772;48.646;8.906;2023-02-26T16:55:30;96300.69;;;-1.55;86.70
4598;BME280;62772;48.646;8.906;2023-02-26T17:00:34;96308.78;;;-1.56;88.49
4598;BME280;62772;48.646;8.906;2023-02-26T17:05:38;96322.69;;;-1.56;86.80
4598;BME280;62772;48.646;8.906;2023-02-26T17:10:54;96320.41;;;-1.64;83.39
4598;BME280;62772;48.646;8.906;2023-02-26T17:16:04;96338.41;;;-1.68;83.72
4598;BME280;62772;48.646;8.906;2023-02-26T17:21:08;96340.00;;;-1.67;87.27
4598;BME280;62772;48.646;8.906;2023-02-26T17:26:09;96330.31;;;-1.66;86.08
4598;BME280;62772;48.646;8.906;2023-02-26T17:31:10;96346.94;;;-1.72;85.38
4598;BME280;62772;48.646;8.906;2023-02-26T17:36:14;96331.47;;;-1.74;84.61
4598;BME280;62772;48.646;8.906;2023-02-26T17:41:17;96352.88;;;-1.77;84.12
4598;BME280;62772;48.646;8.906;2023-02-26T17:46:18;96354.16;;;-1.79;84.28
4598;BME280;62772;48.646;8.906;2023-02-26T17:51:18;96359.38;;;-1.79;84.10
4598;BME280;62772;48.646;8.906;2023-02-26T17:56:27;96369.72;;;-1.85;86.06
4598;BME280;62772;48.646;8.906;2023-02-26T18:01:28;96368.97;;;-1.97;87.51
4598;BME280;62772;48.646;8.906;2023-02-26T18:06:34;96376.13;;;-2.04;93.08
4598;BME280;62772;48.646;8.906;2023-02-26T18:11:35;96372.38;;;-1.96;92.15
4598;BME280;62772;48.646;8.906;2023-02-26T18:16:39;96380.22;;;-1.96;92.53
4598;BME280;62772;48.646;8.906;2023-02-26T18:21:40;96376.91;;;-2.04;92.25
4598;BME280;62772;48.646;8.906;2023-02-26T18:26:40;96377.38;;;-2.19;92.33
4598;BME280;62772;48.646;8.906;2023-02-26T18:31:41;96391.47;;;-2.20;91.78
4598;BME280;62772;48.646;8.906;2023-02-26T18:36:41;96381.34;;;-2.28;91.42
4598;BME280;62772;48.646;8.906;2023-02-26T18:41:42;96395.44;;;-2.29;91.22
4598;BME280;62772;48.646;8.906;2023-02-26T18:46:42;96398.97;;;-2.35;92.03
4598;BME280;62772;48.646;8.906;2023-02-26T18:51:44;96393.47;;;-2.57;92.76
4598;BME280;62772;48.646;8.906;2023-02-26T18:56:44;96393.47;;;-2.45;92.29
4598;BME280;62772;48.646;8.906;2023-02-26T19:01:46;96397.56;;;-2.49;89.63
4598;BME280;62772;48.646;8.906;2023-02-26T19:06:47;96407.00;;;-2.48;90.27
4598;BME280;62772;48.646;8.906;2023-02-26T19:11:48;96411.22;;;-2.47;90.81
4598;BME280;62772;48.646;8.906;2023-02-26T19:16:48;96415.28;;;-2.51;91.33
4598;BME280;62772;48.646;8.906;2023-02-26T19:21:48;96422.34;;;-2.52;90.61
4598;BME280;62772;48.646;8.906;2023-02-26T19:26:49;96415.72;;;-2.55;90.29
4598;BME280;62772;48.646;8.906;2023-02-26T19:31:49;96423.56;;;-2.55;91.16
4598;BME280;62772;48.646;8.906;2023-02-26T19:36:50;96433.34;;;-2.62;90.84
4598;BME280;62772;48.646;8.906;2023-02-26T19:41:53;96430.72;;;-2.62;92.68
4598;BME280;62772;48.646;8.906;2023-02-26T19:46:54;96434.81;;;-2.66;91.61
4598;BME280;62772;48.646;8.906;2023-02-26T19:51:55;96458.78;;;-2.69;90.58
4598;BME280;62772;48.646;8.906;2023-02-26T19:56:55;96460.69;;;-2.76;92.07
4598;BME280;62772;48.646;8.906;2023-02-26T20:01:56;96472.06;;;-2.70;91.90
4598;BME280;62772;48.646;8.906;2023-02-26T20:06:56;96477.53;;;-2.72;94.09
4598;BME280;62772;48.646;8.906;2023-02-26T20:11:57;96479.56;;;-2.74;92.95
4598;BME280;62772;48.646;8.906;2023-02-26T20:16:58;96484.22;;;-2.76;92.68
4598;BME280;62772;48.646;8.906;2023-02-26T20:21:58;96487.41;;;-2.74;94.44
4598;BME280;62772;48.646;8.906;2023-02-26T20:26:59;96492.06;;;-2.76;95.09
4598;BME280;62772;48.646;8.906;2023-02-26T20:31:59;96503.97;;;-2.80;96.22
4598;BME280;62772;48.646;8.906;2023-02-26T20:37:00;96502.91;;;-2.91;95.37
4598;BME280;62772;48.646;8.906;2023-02-26T20:42:00;96513.59;;;-2.93;96.49
4598;BME280;62772;48.646;8.906;2023-02-26T20:47:01;96517.28;;;-3.00;96.83
4598;BME280;62772;48.646;8.906;2023-02-26T20:52:02;96512.13;;;-3.07;99.06
4598;BME280;62772;48.646;8.906;2023-02-26T20:57:02;96515.81;;;-3.15;99.77
4598;BME280;62772;48.646;8.906;2023-02-26T21:02:03;96521.47;;;-3.18;99.88
4598;BME280;62772;48.646;8.906;2023-02-26T21:07:03;96519.53;;;-3.22;99.10
4598;BME280;62772;48.646;8.906;2023-02-26T21:12:20;96520.16;;;-3.27;100.00
4598;BME280;62772;48.646;8.906;2023-02-26T21:17:23;96520.81;;;-3.32;100.00
4598;BME280;62772;48.646;8.906;2023-02-26T21:22:23;96515.00;;;-3.34;100.00
4598;BME280;62772;48.646;8.906;2023-02-26T21:27:24;96530.97;;;-3.42;100.00
4598;BME280;62772;48.646;8.906;2023-02-26T21:32:25;96524.94;;;-3.42;100.00
4598;BME280;62772;48.646;8.906;2023-02-26T21:37:26;96526.16;;;-3.45;100.00
4598;BME280;62772;48.646;8.906;2023-02-26T21:42:26;96533.56;;;-3.42;100.00
4598;BME280;62772;48.646;8.906;2023-02-26T21:47:27;96532.41;;;-3.46;100.00
4598;BME280;62772;48.646;8.906;2023-02-26T21:52:28;96531.53;;;-3.40;100.00
4598;BME280;62772;48.646;8.906;2023-02-26T21:57:28;96530.22;;;-3.49;100.00
4598;BME280;62772;48.646;8.906;2023-02-26T22:02:29;96516.94;;;-3.48;100.00
4598;BME280;62772;48.646;8.906;2023-02-26T22:07:29;96519.97;;;-3.51;100.00
4598;BME280;62772;48.646;8.906;2023-02-26T22:12:30;96516.19;;;-3.55;100.00
4598;BME280;62772;48.646;8.906;2023-02-26T22:17:31;96514.47;;;-3.61;100.00
4598;BME280;62772;48.646;8.906;2023-02-26T22:22:31;96508.63;;;-3.63;100.00
4598;BME280;62772;48.646;8.906;2023-02-26T22:27:33;96509.06;;;-3.66;100.00
4598;BME280;62772;48.646;8.906;2023-02-26T22:32:34;96508.13;;;-3.72;100.00
4598;BME280;62772;48.646;8.906;2023-02-26T22:37:34;96516.38;;;-3.75;100.00
4598;BME280;62772;48.646;8.906;2023-02-26T22:42:35;96514.19;;;-3.78;100.00
4598;BME280;62772;48.646;8.906;2023-02-26T22:47:35;96520.47;;;-3.86;100.00
4598;BME280;62772;48.646;8.906;2023-02-26T22:52:36;96514.69;;;-3.88;100.00
4598;BME280;62772;48.646;8.906;2023-02-26T22:57:36;96524.50;;;-3.90;100.00
4598;BME280;62772;48.646;8.906;2023-02-26T23:02:37;96533.00;;;-3.94;100.00
4598;BME280;62772;48.646;8.906;2023-02-26T23:07:40;96532.59;;;-3.98;100.00
4598;BME280;62772;48.646;8.906;2023-02-26T23:12:42;96530.03;;;-4.05;100.00
4598;BME280;62772;48.646;8.906;2023-02-26T23:17:42;96539.69;;;-4.05;100.00
4598;BME280;62772;48.646;8.906;2023-02-26T23:22:43;96532.06;;;-4.07;100.00
4598;BME280;62772;48.646;8.906;2023-02-26T23:27:43;96529.09;;;-4.10;100.00
4598;BME280;62772;48.646;8.906;2023-02-26T23:32:44;96524.50;;;-4.15;100.00
4598;BME280;62772;48.646;8.906;2023-02-26T23:37:45;96535.16;;;-4.16;100.00
4598;BME280;62772;48.646;8.906;2023-02-26T23:42:45;96532.81;;;-4.25;100.00
4598;BME280;62772;48.646;8.906;2023-02-26T23:47:46;96542.19;;;-4.24;100.00
4598;BME280;62772;48.646;8.906;2023-02-26T23:52:46;96534.59;;;-4.25;100.00
4598;BME280;62772;48.646;8.906;2023-02-26T23:57:46;96538.03;;;-4.31;100.00
